createdAt,value
2019-05-29T00:00:28.918Z,9.10
2019-05-29T00:01:28.876Z,9.40
2019-05-29T00:02:28.849Z,10.70
2019-05-29T00:03:28.856Z,8.60
2019-05-29T00:04:28.829Z,9.20
2019-05-29T00:05:28.809Z,8.10
2019-05-29T00:06:40.896Z,7.60
2019-05-29T00:07:28.803Z,7.90
2019-05-29T00:08:28.787Z,8.40
2019-05-29T00:09:28.769Z,8.30
2019-05-29T00:10:28.766Z,7.80
2019-05-29T00:11:28.794Z,8.90
2019-05-29T00:12:28.733Z,7.70
2019-05-29T00:13:28.729Z,6.50
2019-05-29T00:14:28.721Z,6.90
2019-05-29T00:15:28.723Z,7.50
2019-05-29T00:16:28.704Z,6.80
2019-05-29T00:17:28.707Z,6.10
2019-05-29T00:18:28.691Z,8.50
2019-05-29T00:19:28.683Z,7.90
2019-05-29T00:20:28.656Z,7.90
2019-05-29T00:21:28.649Z,6.30
2019-05-29T00:22:28.685Z,6.10
2019-05-29T00:23:28.616Z,10.20
2019-05-29T00:24:28.612Z,7.50
2019-05-29T00:25:28.607Z,8.10
2019-05-29T00:26:28.609Z,9.30
2019-05-29T00:27:28.580Z,8.80
2019-05-29T00:28:28.575Z,8.10
2019-05-29T00:29:28.574Z,6.70
2019-05-29T00:30:28.568Z,7.30
2019-05-29T00:31:28.532Z,6.20
2019-05-29T00:32:28.533Z,7.20
2019-05-29T00:33:28.522Z,7.40
2019-05-29T00:34:28.505Z,6.60
2019-05-29T00:35:28.490Z,5.30
2019-05-29T00:36:28.484Z,6.90
2019-05-29T00:37:38.992Z,6.00
2019-05-29T00:39:37.640Z,6.30
2019-05-29T00:40:37.608Z,6.40
2019-05-29T00:41:37.611Z,7.00
2019-05-29T00:43:37.676Z,6.60
2019-05-29T00:45:37.560Z,6.60
2019-05-29T00:46:37.540Z,6.70
2019-05-29T00:49:37.528Z,8.20
2019-05-29T01:09:44.801Z,11.90
2019-05-29T01:10:37.289Z,10.30
2019-05-29T01:20:37.171Z,16.90
2019-05-29T01:41:36.956Z,13.40
2019-05-29T01:45:43.900Z,12.10
2019-05-29T01:47:44.004Z,11.20
2019-05-29T01:48:43.853Z,13.30
2019-05-29T01:49:36.929Z,11.60
2019-05-29T01:50:36.843Z,11.70
2019-05-29T01:51:36.833Z,11.30
2019-05-29T01:52:36.830Z,12.70
2019-05-29T01:53:36.829Z,14.10
2019-05-29T01:54:36.804Z,10.80
2019-05-29T01:55:36.787Z,11.60
2019-05-29T01:56:36.800Z,14.20
2019-05-29T01:57:36.771Z,12.20
2019-05-29T01:58:36.761Z,13.10
2019-05-29T01:59:36.743Z,12.30
2019-05-29T02:00:36.750Z,12.40
2019-05-29T02:01:36.724Z,11.00
2019-05-29T02:02:36.713Z,12.40
2019-05-29T02:03:36.716Z,13.10
2019-05-29T02:04:36.701Z,11.90
2019-05-29T02:05:36.682Z,12.50
2019-05-29T02:06:36.680Z,20.90
2019-05-29T02:07:36.679Z,16.90
2019-05-29T02:08:36.675Z,13.90
2019-05-29T02:09:36.637Z,15.10
2019-05-29T02:10:36.640Z,18.30
2019-05-29T02:11:36.629Z,15.40
2019-05-29T02:12:36.602Z,16.30
2019-05-29T02:13:36.596Z,19.10
2019-05-29T02:14:36.598Z,18.30
2019-05-29T02:15:36.576Z,17.50
2019-05-29T02:16:36.559Z,16.30
2019-05-29T02:17:36.560Z,15.50
2019-05-29T02:18:36.622Z,16.50
2019-05-29T02:20:36.515Z,18.70
2019-05-29T02:21:36.506Z,18.30
2019-05-29T02:22:36.494Z,16.90
2019-05-29T02:23:36.483Z,18.80
2019-05-29T02:24:36.524Z,18.50
2019-05-29T02:25:36.486Z,18.10
2019-05-29T02:26:36.453Z,15.90
2019-05-29T02:27:36.447Z,18.50
2019-05-29T02:28:36.425Z,17.00
2019-05-29T02:29:36.414Z,16.20
2019-05-29T02:30:36.442Z,14.90
2019-05-29T02:31:36.409Z,19.70
2019-05-29T02:32:36.385Z,17.70
2019-05-29T02:33:36.380Z,17.60
2019-05-29T02:34:36.364Z,18.80
2019-05-29T02:35:36.363Z,18.90
2019-05-29T02:36:36.339Z,16.20
2019-05-29T02:37:36.331Z,15.80
2019-05-29T02:38:36.339Z,14.00
2019-05-29T02:39:36.314Z,16.00
2019-05-29T02:40:36.312Z,13.90
2019-05-29T02:41:36.323Z,14.30
2019-05-29T02:42:36.284Z,15.10
2019-05-29T02:43:36.278Z,12.80
2019-05-29T02:44:36.257Z,15.80
2019-05-29T02:45:52.898Z,13.70
2019-05-29T02:46:37.234Z,12.70
2019-05-29T02:47:36.222Z,12.80
2019-05-29T02:48:36.210Z,11.70
2019-05-29T02:49:36.207Z,13.00
2019-05-29T02:50:48.612Z,11.80
2019-05-29T02:51:36.202Z,12.90
2019-05-29T02:52:36.219Z,11.00
2019-05-29T02:53:36.158Z,10.90
2019-05-29T02:54:36.140Z,11.30
2019-05-29T02:55:36.183Z,11.40
2019-05-29T02:56:36.156Z,12.90
2019-05-29T02:57:36.118Z,12.40
2019-05-29T02:58:36.115Z,11.70
2019-05-29T02:59:36.109Z,12.50
2019-05-29T03:00:36.096Z,10.00
2019-05-29T03:01:36.135Z,11.20
2019-05-29T03:02:36.055Z,12.20
2019-05-29T03:03:39.738Z,11.90
2019-05-29T03:04:36.055Z,12.10
2019-05-29T03:05:36.032Z,11.80
2019-05-29T03:06:36.029Z,12.10
2019-05-29T03:07:36.059Z,12.50
2019-05-29T03:08:36.019Z,11.60
2019-05-29T03:09:35.990Z,11.60
2019-05-29T03:10:35.970Z,13.60
2019-05-29T03:11:35.962Z,11.00
2019-05-29T03:12:35.964Z,11.50
2019-05-29T03:13:35.939Z,11.00
2019-05-29T03:14:35.953Z,11.50
2019-05-29T03:15:35.918Z,12.60
2019-05-29T03:16:35.898Z,11.20
2019-05-29T03:17:35.918Z,10.80
2019-05-29T03:18:36.565Z,10.00
2019-05-29T03:19:35.880Z,11.00
2019-05-29T03:20:35.875Z,10.50
2019-05-29T03:22:44.113Z,11.80
2019-05-29T03:23:36.511Z,11.50
2019-05-29T03:24:35.822Z,12.00
2019-05-29T03:25:37.049Z,12.10
2019-05-29T03:26:35.798Z,13.20
2019-05-29T03:27:35.782Z,10.20
2019-05-29T03:28:35.822Z,11.00
2019-05-29T03:29:35.757Z,12.30
2019-05-29T03:30:42.198Z,13.10
2019-05-29T03:31:43.364Z,12.90
2019-05-29T03:32:43.466Z,12.20
2019-05-29T03:33:44.808Z,14.00
2019-05-29T03:34:42.359Z,11.90
2019-05-29T03:35:43.965Z,11.80
2019-05-29T03:36:46.055Z,10.50
2019-05-29T03:37:38.499Z,12.60
2019-05-29T03:38:35.662Z,12.50
2019-05-29T03:39:35.667Z,12.80
2019-05-29T03:40:35.637Z,13.70
2019-05-29T03:41:35.647Z,14.30
2019-05-29T03:42:35.628Z,14.60
2019-05-29T03:43:36.265Z,15.80
2019-05-29T03:44:35.662Z,11.60
2019-05-29T03:45:36.295Z,17.60
2019-05-29T03:46:43.023Z,13.20
2019-05-29T03:47:37.172Z,14.80
2019-05-29T03:48:35.552Z,13.60
2019-05-29T03:49:37.221Z,14.10
2019-05-29T03:50:35.539Z,13.50
2019-05-29T03:51:37.212Z,13.30
2019-05-29T03:53:36.692Z,15.50
2019-05-29T03:54:35.610Z,13.00
2019-05-29T03:55:35.932Z,13.90
2019-05-29T03:56:35.472Z,14.30
2019-05-29T03:57:35.891Z,13.60
2019-05-29T03:58:37.506Z,12.90
2019-05-29T03:59:37.353Z,16.20
2019-05-29T04:00:41.703Z,17.80
2019-05-29T04:01:37.438Z,17.80
2019-05-29T04:02:36.141Z,17.30
2019-05-29T04:03:36.107Z,15.70
2019-05-29T04:04:36.180Z,16.80
2019-05-29T04:05:35.702Z,15.40
2019-05-29T04:06:35.777Z,21.80
2019-05-29T04:07:35.702Z,18.30
2019-05-29T04:08:35.812Z,18.80
2019-05-29T04:09:35.530Z,17.50
2019-05-29T04:10:37.364Z,21.00
2019-05-29T04:11:35.638Z,23.90
2019-05-29T04:12:35.545Z,21.30
2019-05-29T04:13:36.260Z,18.90
2019-05-29T04:14:35.745Z,18.90
2019-05-29T04:15:36.551Z,20.30
2019-05-29T04:16:52.766Z,28.40
2019-05-29T04:17:37.837Z,21.60
2019-05-29T04:18:35.950Z,25.00
2019-05-29T04:19:36.867Z,18.40
2019-05-29T04:21:36.345Z,21.60
2019-05-29T04:23:45.659Z,26.30
2019-05-29T04:24:35.979Z,19.60
2019-05-29T04:25:38.279Z,22.50
2019-05-29T04:26:36.283Z,20.30
2019-05-29T04:27:35.977Z,25.60
2019-05-29T04:28:36.766Z,21.90
2019-05-29T04:29:36.116Z,19.70
2019-05-29T04:30:36.511Z,20.40
2019-05-29T04:31:36.574Z,21.40
2019-05-29T04:32:36.636Z,22.60
2019-05-29T04:33:36.662Z,20.80
2019-05-29T04:34:35.866Z,19.20
2019-05-29T04:35:36.626Z,22.10
2019-05-29T04:36:36.700Z,18.10
2019-05-29T04:37:36.834Z,18.30
2019-05-29T04:38:36.149Z,19.70
2019-05-29T04:39:36.835Z,24.20
2019-05-29T04:40:37.097Z,19.60
2019-05-29T04:41:36.869Z,22.90
2019-05-29T04:42:35.793Z,21.40
2019-05-29T04:43:35.662Z,24.90
2019-05-29T04:44:36.264Z,26.10
2019-05-29T04:45:35.991Z,28.20
2019-05-29T04:46:36.337Z,21.80
2019-05-29T04:47:35.217Z,27.90
2019-05-29T04:48:36.228Z,26.20
2019-05-29T04:49:36.166Z,25.30
2019-05-29T04:50:36.420Z,24.40
2019-05-29T04:51:35.442Z,27.00
2019-05-29T04:52:35.917Z,27.60
2019-05-29T04:53:35.550Z,27.80
2019-05-29T04:55:34.901Z,23.80
2019-05-29T04:56:34.922Z,25.60
2019-05-29T04:57:35.004Z,22.40
2019-05-29T04:58:34.894Z,25.20
2019-05-29T04:59:35.037Z,21.30
2019-05-29T05:00:35.230Z,24.40
2019-05-29T05:01:35.066Z,24.20
2019-05-29T05:02:35.071Z,26.40
2019-05-29T05:03:35.179Z,27.60
2019-05-29T05:04:35.163Z,25.00
2019-05-29T05:05:35.333Z,27.20
2019-05-29T05:06:35.315Z,32.50
2019-05-29T05:07:35.379Z,26.10
2019-05-29T05:08:41.971Z,27.90
2019-05-29T05:09:35.419Z,28.60
2019-05-29T05:11:05.499Z,28.10
2019-05-29T05:11:51.549Z,26.90
2019-05-29T05:12:44.337Z,29.30
2019-05-29T05:13:35.572Z,25.00
2019-05-29T05:15:25.416Z,32.30
2019-05-29T05:16:25.409Z,31.40
2019-05-29T05:17:26.598Z,34.70
2019-05-29T05:18:25.381Z,29.60
2019-05-29T05:19:25.387Z,28.80
2019-05-29T05:20:25.384Z,30.30
2019-05-29T05:21:25.348Z,29.10
2019-05-29T05:22:25.335Z,31.20
2019-05-29T05:23:25.328Z,32.40
2019-05-29T05:24:25.331Z,28.20
2019-05-29T05:25:25.321Z,31.00
2019-05-29T05:26:25.302Z,32.60
2019-05-29T05:27:25.310Z,31.10
2019-05-29T05:28:25.279Z,31.00
2019-05-29T05:29:25.263Z,29.60
2019-05-29T05:30:25.254Z,30.40
2019-05-29T05:31:25.280Z,29.70
2019-05-29T05:32:25.242Z,32.30
2019-05-29T05:33:25.222Z,29.20
2019-05-29T05:34:25.223Z,32.70
2019-05-29T05:35:25.203Z,33.20
2019-05-29T05:36:25.182Z,32.90
2019-05-29T05:37:25.188Z,31.00
2019-05-29T05:38:25.283Z,33.80
2019-05-29T05:39:25.154Z,35.10
2019-05-29T05:40:25.143Z,35.30
2019-05-29T05:41:25.138Z,35.50
2019-05-29T05:42:25.139Z,32.20
2019-05-29T05:43:25.115Z,35.50
2019-05-29T05:44:25.156Z,36.30
2019-05-29T05:45:32.984Z,33.80
2019-05-29T05:46:25.086Z,38.30
2019-05-29T05:47:43.093Z,37.40
2019-05-29T05:48:26.053Z,37.60
2019-05-29T05:49:25.065Z,37.40
2019-05-29T05:50:25.038Z,40.10
2019-05-29T05:51:25.019Z,34.10
2019-05-29T05:52:25.027Z,36.00
2019-05-29T05:53:25.092Z,36.70
2019-05-29T05:54:25.001Z,31.40
2019-05-29T05:55:24.984Z,35.30
2019-05-29T05:56:24.969Z,35.80
2019-05-29T05:57:24.969Z,34.20
2019-05-29T05:58:24.954Z,38.80
2019-05-29T05:59:24.930Z,36.80
2019-05-29T06:00:24.929Z,34.50
2019-05-29T06:01:24.920Z,36.20
2019-05-29T06:02:25.168Z,34.00
2019-05-29T06:03:24.899Z,32.50
2019-05-29T06:04:24.922Z,31.90
2019-05-29T06:05:24.870Z,33.50
2019-05-29T06:06:24.860Z,32.30
2019-05-29T06:07:24.881Z,29.70
2019-05-29T06:08:24.833Z,29.30
2019-05-29T06:09:24.845Z,30.20
2019-05-29T06:10:24.811Z,27.30
2019-05-29T06:11:24.809Z,25.80
2019-05-29T06:12:24.813Z,26.90
2019-05-29T06:13:24.792Z,25.90
2019-05-29T06:14:24.784Z,26.60
2019-05-29T06:15:24.917Z,28.90
2019-05-29T06:16:37.194Z,24.50
2019-05-29T06:17:25.750Z,24.80
2019-05-29T06:18:24.777Z,25.10
2019-05-29T06:19:24.726Z,25.60
2019-05-29T06:20:24.716Z,23.50
2019-05-29T06:21:24.713Z,24.60
2019-05-29T06:22:24.703Z,24.50
2019-05-29T06:23:24.711Z,21.10
2019-05-29T06:24:24.723Z,24.10
2019-05-29T06:25:24.761Z,26.90
2019-05-29T06:26:24.636Z,22.00
2019-05-29T06:27:24.635Z,25.00
2019-05-29T06:28:24.643Z,25.60
2019-05-29T06:29:33.405Z,24.80
2019-05-29T06:30:24.598Z,24.70
2019-05-29T06:31:27.145Z,24.00
2019-05-29T06:32:24.571Z,26.70
2019-05-29T06:33:24.564Z,24.70
2019-05-29T06:34:24.566Z,29.00
2019-05-29T06:35:31.766Z,25.10
2019-05-29T06:36:25.513Z,26.90
2019-05-29T06:37:26.189Z,26.60
2019-05-29T06:38:24.511Z,28.60
2019-05-29T06:39:24.503Z,27.40
2019-05-29T06:40:24.484Z,29.50
2019-05-29T06:41:24.473Z,28.10
2019-05-29T06:42:25.731Z,25.50
2019-05-29T06:43:24.458Z,28.70
2019-05-29T06:44:31.956Z,28.10
2019-05-29T06:45:24.438Z,23.30
2019-05-29T06:46:24.422Z,23.80
2019-05-29T06:47:24.415Z,23.30
2019-05-29T06:48:40.421Z,24.20
2019-05-29T06:49:25.397Z,23.60
2019-05-29T06:50:24.395Z,25.30
2019-05-29T06:51:24.387Z,23.40
2019-05-29T06:52:24.365Z,22.00
2019-05-29T06:53:24.349Z,23.00
2019-05-29T06:54:24.328Z,22.30
2019-05-29T06:55:24.339Z,21.90
2019-05-29T06:56:24.340Z,23.60
2019-05-29T06:57:25.923Z,23.50
2019-05-29T06:58:24.290Z,23.70
2019-05-29T06:59:24.295Z,25.60
2019-05-29T07:00:34.983Z,22.30
2019-05-29T07:01:25.254Z,24.70
2019-05-29T07:02:24.260Z,25.00
2019-05-29T07:03:24.245Z,23.00
2019-05-29T07:04:24.238Z,24.70
2019-05-29T07:05:24.244Z,25.00
2019-05-29T07:06:24.213Z,25.20
2019-05-29T07:07:24.204Z,24.90
2019-05-29T07:08:38.145Z,24.00
2019-05-29T07:09:25.182Z,28.80
2019-05-29T07:10:24.160Z,26.80
2019-05-29T07:11:24.159Z,22.50
2019-05-29T07:12:24.129Z,27.00
2019-05-29T07:13:24.131Z,23.40
2019-05-29T07:14:24.117Z,24.80
2019-05-29T07:15:36.507Z,27.90
2019-05-29T07:16:42.872Z,27.00
2019-05-29T07:17:25.079Z,25.70
2019-05-29T07:18:24.076Z,24.80
2019-05-29T07:19:34.192Z,24.00
2019-05-29T07:20:25.065Z,26.90
2019-05-29T07:21:24.108Z,25.70
2019-05-29T07:22:24.022Z,25.30
2019-05-29T07:23:24.026Z,25.90
2019-05-29T07:24:24.005Z,23.10
2019-05-29T07:25:23.990Z,25.30
2019-05-29T07:26:24.054Z,25.30
2019-05-29T07:27:23.968Z,25.80
2019-05-29T07:28:23.962Z,27.50
2019-05-29T07:29:23.960Z,26.90
2019-05-29T07:30:23.962Z,25.10
2019-05-29T07:31:23.943Z,25.00
2019-05-29T07:32:23.949Z,25.20
2019-05-29T07:33:23.907Z,25.60
2019-05-29T07:34:23.890Z,26.00
2019-05-29T07:35:23.884Z,23.40
2019-05-29T07:36:23.870Z,25.90
2019-05-29T07:37:23.858Z,27.70
2019-05-29T07:38:23.861Z,26.00
2019-05-29T07:39:23.879Z,24.10
2019-05-29T07:40:23.831Z,23.30
2019-05-29T07:41:23.825Z,22.50
2019-05-29T07:42:23.804Z,23.80
2019-05-29T07:43:23.803Z,20.50
2019-05-29T07:44:23.863Z,21.80
2019-05-29T07:45:23.819Z,21.50
2019-05-29T07:46:35.918Z,24.00
2019-05-29T07:47:23.759Z,24.00
2019-05-29T07:48:23.877Z,21.70
2019-05-29T07:49:38.148Z,21.60
2019-05-29T07:50:24.736Z,22.10
2019-05-29T07:51:23.709Z,21.30
2019-05-29T07:52:23.714Z,21.60
2019-05-29T07:53:23.702Z,21.30
2019-05-29T07:54:23.685Z,20.80
2019-05-29T07:55:23.897Z,19.30
2019-05-29T07:56:23.674Z,20.50
2019-05-29T07:57:23.651Z,20.90
2019-05-29T07:58:23.658Z,19.50
2019-05-29T07:59:23.642Z,19.70
2019-05-29T08:00:34.738Z,20.60
2019-05-29T08:01:24.597Z,17.90
2019-05-29T08:02:23.593Z,19.10
2019-05-29T08:03:23.573Z,17.90
2019-05-29T08:04:23.591Z,18.50
2019-05-29T08:05:23.574Z,19.30
2019-05-29T08:06:23.545Z,18.10
2019-05-29T08:07:23.629Z,16.40
2019-05-29T08:08:23.517Z,17.70
2019-05-29T08:09:23.513Z,17.30
2019-05-29T08:10:23.529Z,15.30
2019-05-29T08:11:23.500Z,16.80
2019-05-29T08:12:23.503Z,15.50
2019-05-29T08:13:23.497Z,15.10
2019-05-29T08:14:23.468Z,14.70
2019-05-29T08:15:23.453Z,15.80
2019-05-29T08:16:23.434Z,16.40
2019-05-29T08:17:35.176Z,13.70
2019-05-29T08:18:23.430Z,16.50
2019-05-29T08:19:23.431Z,13.70
2019-05-29T08:20:23.408Z,13.70
2019-05-29T08:21:23.382Z,13.80
2019-05-29T08:22:33.748Z,14.70
2019-05-29T08:23:24.356Z,13.60
2019-05-29T08:24:24.820Z,15.00
2019-05-29T08:25:23.346Z,14.40
2019-05-29T08:26:23.332Z,14.50
2019-05-29T08:27:23.323Z,12.50
2019-05-29T08:28:23.301Z,11.00
2019-05-29T08:29:23.290Z,11.60
2019-05-29T08:30:23.287Z,12.10
2019-05-29T08:31:23.296Z,11.50
2019-05-29T08:32:23.255Z,13.60
2019-05-29T08:33:23.248Z,11.70
2019-05-29T08:34:23.239Z,12.40
2019-05-29T08:35:23.225Z,11.50
2019-05-29T08:36:23.269Z,12.70
2019-05-29T08:37:23.211Z,11.00
2019-05-29T08:38:23.205Z,10.90
2019-05-29T08:39:35.361Z,10.50
2019-05-29T08:40:24.192Z,10.40
2019-05-29T08:41:23.160Z,10.50
2019-05-29T08:42:23.965Z,10.60
2019-05-29T08:43:23.140Z,9.80
2019-05-29T08:44:23.124Z,9.20
2019-05-29T08:45:23.123Z,8.90
2019-05-29T08:46:23.116Z,9.30
2019-05-29T08:47:23.107Z,9.50
2019-05-29T08:48:35.224Z,10.00
2019-05-29T08:49:23.342Z,9.50
2019-05-29T08:50:23.062Z,10.40
2019-05-29T08:51:23.046Z,9.80
2019-05-29T08:52:23.084Z,9.50
2019-05-29T08:53:23.071Z,9.30
2019-05-29T08:54:24.215Z,9.00
2019-05-29T08:55:23.009Z,8.50
2019-05-29T08:56:23.001Z,9.20
2019-05-29T08:57:22.987Z,9.70
2019-05-29T08:58:22.982Z,9.20
2019-05-29T08:59:22.985Z,8.40
2019-05-29T09:00:22.994Z,7.90
2019-05-29T09:01:22.950Z,7.60
2019-05-29T09:02:22.935Z,8.00
2019-05-29T09:03:22.939Z,7.20
2019-05-29T09:04:22.927Z,7.10
2019-05-29T09:05:22.902Z,7.30
2019-05-29T09:06:22.898Z,6.50
2019-05-29T09:07:22.882Z,6.80
2019-05-29T09:08:22.941Z,6.70
2019-05-29T09:09:22.872Z,6.00
2019-05-29T09:10:22.848Z,5.70
2019-05-29T09:11:22.837Z,5.60
2019-05-29T09:12:22.822Z,6.20
2019-05-29T09:13:22.818Z,5.80
2019-05-29T09:14:22.820Z,5.00
2019-05-29T09:15:22.793Z,5.00
2019-05-29T09:16:22.912Z,4.70
2019-05-29T09:17:22.788Z,4.50
2019-05-29T09:18:25.557Z,4.50
2019-05-29T09:19:33.102Z,4.00
2019-05-29T09:20:37.205Z,3.90
2019-05-29T09:21:26.617Z,5.00
2019-05-29T09:22:23.032Z,4.10
2019-05-29T09:23:23.309Z,4.30
2019-05-29T09:24:23.084Z,4.60
2019-05-29T09:25:23.264Z,4.50
2019-05-29T09:26:25.498Z,5.00
2019-05-29T09:27:23.298Z,4.60
2019-05-29T09:28:23.843Z,5.70
2019-05-29T09:29:23.807Z,4.60
2019-05-29T09:30:23.626Z,4.60
2019-05-29T09:31:23.799Z,5.10
2019-05-29T09:32:47.657Z,4.60
2019-05-29T09:33:24.584Z,4.00
2019-05-29T09:34:22.838Z,4.50
2019-05-29T09:35:24.600Z,4.40
2019-05-29T09:36:22.810Z,4.40
2019-05-29T09:37:22.544Z,4.90
2019-05-29T09:38:23.062Z,4.60
2019-05-29T09:39:22.842Z,4.50
2019-05-29T09:40:23.079Z,4.80
2019-05-29T09:41:23.573Z,4.50
2019-05-29T09:42:23.717Z,4.90
2019-05-29T09:43:27.088Z,4.60
2019-05-29T09:44:33.882Z,4.60
2019-05-29T09:45:23.545Z,4.60
2019-05-29T09:46:23.707Z,4.90
2019-05-29T09:47:24.069Z,5.00
2019-05-29T09:48:26.504Z,4.90
2019-05-29T09:49:22.416Z,4.90
2019-05-29T09:50:48.954Z,5.20
2019-05-29T09:51:23.423Z,5.20
2019-05-29T09:52:22.423Z,5.10
2019-05-29T09:53:22.399Z,5.40
2019-05-29T09:54:22.439Z,5.50
2019-05-29T09:55:22.355Z,5.60
2019-05-29T09:56:22.402Z,5.80
2019-05-29T09:57:22.337Z,5.60
2019-05-29T09:58:22.325Z,5.70
2019-05-29T09:59:22.317Z,5.80
2019-05-29T10:00:22.302Z,5.70
2019-05-29T10:01:24.421Z,5.10
2019-05-29T10:02:22.336Z,5.50
2019-05-29T10:03:22.340Z,5.50
2019-05-29T10:04:22.252Z,5.60
2019-05-29T10:05:22.247Z,6.40
2019-05-29T10:06:22.230Z,6.00
2019-05-29T10:07:22.217Z,5.90
2019-05-29T10:08:22.222Z,6.20
2019-05-29T10:09:22.198Z,6.20
2019-05-29T10:10:22.187Z,6.00
2019-05-29T10:11:22.178Z,5.90
2019-05-29T10:12:22.179Z,5.50
2019-05-29T10:13:22.156Z,5.60
2019-05-29T10:14:22.143Z,5.50
2019-05-29T10:15:22.138Z,5.00
2019-05-29T10:16:22.118Z,4.60
2019-05-29T10:17:22.159Z,4.90
2019-05-29T10:18:32.175Z,5.30
2019-05-29T10:19:23.087Z,5.00
2019-05-29T10:20:22.093Z,5.10
2019-05-29T10:21:40.492Z,4.80
2019-05-29T10:22:23.103Z,5.00
2019-05-29T10:23:22.087Z,4.80
2019-05-29T10:24:22.166Z,4.70
2019-05-29T10:25:22.023Z,4.80
2019-05-29T10:26:22.011Z,5.80
2019-05-29T10:27:22.010Z,5.00
2019-05-29T10:28:21.998Z,5.00
2019-05-29T10:29:22.510Z,5.40
2019-05-29T10:30:21.969Z,5.20
2019-05-29T10:31:21.965Z,4.90
2019-05-29T10:32:21.943Z,5.20
2019-05-29T10:33:23.160Z,4.90
2019-05-29T10:34:22.070Z,5.00
2019-05-29T10:35:22.102Z,4.90
2019-05-29T10:36:22.101Z,5.10
2019-05-29T10:37:22.330Z,5.00
2019-05-29T10:38:22.021Z,4.80
2019-05-29T10:39:22.079Z,4.80
2019-05-29T10:40:21.953Z,4.90
2019-05-29T10:41:22.050Z,5.00
2019-05-29T10:42:21.903Z,4.90
2019-05-29T10:43:33.736Z,5.30
2019-05-29T10:44:23.012Z,4.60
2019-05-29T10:45:22.034Z,4.80
2019-05-29T10:46:21.948Z,4.40
2019-05-29T10:47:22.034Z,5.90
2019-05-29T10:48:21.877Z,4.70
2019-05-29T10:49:21.891Z,5.10
2019-05-29T10:50:21.979Z,5.10
2019-05-29T10:51:21.813Z,5.70
2019-05-29T10:52:33.950Z,5.20
2019-05-29T10:53:21.753Z,6.10
2019-05-29T10:54:21.978Z,4.90
2019-05-29T10:55:21.708Z,4.90
2019-05-29T10:56:21.821Z,5.50
2019-05-29T10:57:21.689Z,4.50
2019-05-29T10:58:21.665Z,4.20
2019-05-29T10:59:21.651Z,3.90
2019-05-29T11:00:21.651Z,4.10
2019-05-29T11:01:21.641Z,3.90
2019-05-29T11:02:21.626Z,4.20
2019-05-29T11:03:21.609Z,4.40
2019-05-29T11:04:21.595Z,4.70
2019-05-29T11:05:21.595Z,4.40
2019-05-29T11:06:21.607Z,4.40
2019-05-29T11:07:21.574Z,4.30
2019-05-29T11:08:21.563Z,4.60
2019-05-29T11:09:21.542Z,3.70
2019-05-29T11:10:21.543Z,3.50
2019-05-29T11:11:21.534Z,3.60
2019-05-29T11:12:21.522Z,3.70
2019-05-29T11:13:21.496Z,3.60
2019-05-29T11:14:21.488Z,3.60
2019-05-29T11:15:22.151Z,4.00
2019-05-29T11:16:21.478Z,3.90
2019-05-29T11:17:21.499Z,4.40
2019-05-29T11:18:21.443Z,4.10
2019-05-29T11:19:21.434Z,3.20
2019-05-29T11:20:21.425Z,3.10
2019-05-29T11:21:21.415Z,3.20
2019-05-29T11:22:26.198Z,3.20
2019-05-29T11:24:36.711Z,3.20
2019-05-29T11:25:36.444Z,3.30
2019-05-29T11:26:36.531Z,3.10
2019-05-29T11:27:36.274Z,3.40
2019-05-29T11:28:36.286Z,3.20
2019-05-29T11:29:36.256Z,3.10
2019-05-29T11:30:36.239Z,3.10
2019-05-29T11:31:36.226Z,3.40
2019-05-29T11:32:36.276Z,3.60
2019-05-29T11:33:36.212Z,3.30
2019-05-29T11:34:36.203Z,3.70
2019-05-29T11:35:36.181Z,3.20
2019-05-29T11:36:36.182Z,4.20
2019-05-29T11:37:36.176Z,3.30
2019-05-29T11:38:36.187Z,3.10
2019-05-29T11:39:36.144Z,3.10
2019-05-29T11:40:36.272Z,3.00
2019-05-29T11:41:36.126Z,2.80
2019-05-29T11:42:36.109Z,2.90
2019-05-29T11:43:36.140Z,2.70
2019-05-29T11:44:36.132Z,3.30
2019-05-29T11:45:36.155Z,2.50
2019-05-29T11:46:36.066Z,2.70
2019-05-29T11:47:36.055Z,3.50
2019-05-29T11:48:36.045Z,3.10
2019-05-29T11:49:36.041Z,2.50
2019-05-29T11:50:36.059Z,4.40
2019-05-29T11:51:36.015Z,3.10
2019-05-29T11:52:42.905Z,2.70
2019-05-29T11:53:36.995Z,3.40
2019-05-29T11:54:47.991Z,3.20
2019-05-29T11:55:36.196Z,2.90
2019-05-29T11:56:35.977Z,2.70
2019-05-29T11:57:39.477Z,2.80
2019-05-29T11:58:35.946Z,2.70
2019-05-29T11:59:35.931Z,2.60
2019-05-29T12:00:35.922Z,2.60
2019-05-29T12:01:49.797Z,4.20
2019-05-29T12:02:36.898Z,3.10
2019-05-29T12:03:35.883Z,2.50
2019-05-29T12:04:35.875Z,2.20
2019-05-29T12:05:35.880Z,2.40
2019-05-29T12:06:35.954Z,3.60
2019-05-29T12:07:35.843Z,1.90
2019-05-29T12:08:35.832Z,3.30
2019-05-29T12:09:35.987Z,4.10
2019-05-29T12:10:35.834Z,2.40
2019-05-29T12:11:35.800Z,2.40
2019-05-29T12:12:35.787Z,3.60
2019-05-29T12:13:35.778Z,2.10
2019-05-29T12:14:57.647Z,2.00
2019-05-29T12:15:36.761Z,2.80
2019-05-29T12:16:35.756Z,2.90
2019-05-29T12:17:35.869Z,2.30
2019-05-29T12:18:35.726Z,3.20
2019-05-29T12:19:35.709Z,2.80
2019-05-29T12:20:35.703Z,2.70
2019-05-29T12:21:35.720Z,2.90
2019-05-29T12:22:35.711Z,2.20
2019-05-29T12:23:35.666Z,2.00
2019-05-29T12:24:35.675Z,2.40
2019-05-29T12:25:46.161Z,3.30
2019-05-29T12:26:35.681Z,2.10
2019-05-29T12:27:35.849Z,2.00
2019-05-29T12:28:35.682Z,2.10
2019-05-29T12:29:35.608Z,3.00
2019-05-29T12:30:35.665Z,2.60
2019-05-29T12:31:35.586Z,3.10
2019-05-29T12:32:35.580Z,1.70
2019-05-29T12:33:35.569Z,2.10
2019-05-29T12:34:35.548Z,4.00
2019-05-29T12:35:35.537Z,1.70
2019-05-29T12:36:35.530Z,1.60
2019-05-29T12:37:35.533Z,1.70
2019-05-29T12:38:35.568Z,1.80
2019-05-29T12:39:35.500Z,1.70
2019-05-29T12:40:35.486Z,1.80
2019-05-29T12:41:35.613Z,2.40
2019-05-29T12:42:35.473Z,2.40
2019-05-29T12:43:35.470Z,1.60
2019-05-29T12:44:35.448Z,1.70
2019-05-29T12:45:35.439Z,1.90
2019-05-29T12:46:35.424Z,2.50
2019-05-29T12:47:35.414Z,2.40
2019-05-29T12:48:35.413Z,1.40
2019-05-29T12:49:35.392Z,3.10
2019-05-29T12:50:35.384Z,1.50
2019-05-29T12:51:35.391Z,1.40
2019-05-29T12:52:35.362Z,1.70
2019-05-29T12:53:35.359Z,2.10
2019-05-29T12:54:35.334Z,1.60
2019-05-29T12:55:35.331Z,2.20
2019-05-29T12:56:46.033Z,2.00
2019-05-29T12:57:35.349Z,3.60
2019-05-29T12:58:35.427Z,2.30
2019-05-29T12:59:35.284Z,1.50
2019-05-29T13:00:35.283Z,1.60
2019-05-29T13:01:35.271Z,2.60
2019-05-29T13:02:35.249Z,2.40
2019-05-29T13:03:35.262Z,1.90
2019-05-29T13:05:05.127Z,1.70
2019-05-29T13:05:36.215Z,1.90
2019-05-29T13:06:35.219Z,1.50
2019-05-29T13:07:35.195Z,2.00
2019-05-29T13:08:35.187Z,3.70
2019-05-29T13:09:35.191Z,1.40
2019-05-29T13:10:35.163Z,2.10
2019-05-29T13:11:35.161Z,1.30
2019-05-29T13:12:35.147Z,1.90
2019-05-29T13:13:35.129Z,1.70
2019-05-29T13:14:35.162Z,2.60
2019-05-29T13:15:35.111Z,1.40
2019-05-29T13:16:35.097Z,1.70
2019-05-29T13:17:35.091Z,1.40
2019-05-29T13:18:35.076Z,2.90
2019-05-29T13:19:35.072Z,2.90
2019-05-29T13:20:35.066Z,1.30
2019-05-29T13:21:35.045Z,1.90
2019-05-29T13:22:35.040Z,2.00
2019-05-29T13:23:44.645Z,2.60
2019-05-29T13:24:36.017Z,2.30
2019-05-29T13:25:35.050Z,2.10
2019-05-29T13:26:34.999Z,1.70
2019-05-29T13:27:45.102Z,1.50
2019-05-29T13:28:34.984Z,2.30
2019-05-29T13:29:35.042Z,2.60
2019-05-29T13:30:34.962Z,1.30
2019-05-29T13:31:34.969Z,1.60
2019-05-29T13:32:34.937Z,2.40
2019-05-29T13:33:34.925Z,1.10
2019-05-29T13:34:34.919Z,1.60
2019-05-29T13:35:34.902Z,2.00
2019-05-29T13:36:34.903Z,2.10
2019-05-29T13:37:34.875Z,1.80
2019-05-29T13:38:34.897Z,1.40
2019-05-29T13:39:34.849Z,1.20
2019-05-29T13:40:34.849Z,1.40
2019-05-29T13:41:34.829Z,2.50
2019-05-29T13:42:34.859Z,1.40
2019-05-29T13:43:34.809Z,1.30
2019-05-29T13:44:34.799Z,1.50
2019-05-29T13:45:34.794Z,1.90
2019-05-29T13:46:34.791Z,1.50
2019-05-29T13:47:34.768Z,1.90
2019-05-29T13:48:34.786Z,2.40
2019-05-29T13:49:34.746Z,1.60
2019-05-29T13:50:34.730Z,2.10
2019-05-29T13:51:34.726Z,3.60
2019-05-29T13:52:34.724Z,3.10
2019-05-29T13:53:34.700Z,2.60
2019-05-29T13:54:34.690Z,2.80
2019-05-29T13:55:34.676Z,2.10
2019-05-29T13:56:34.674Z,1.40
2019-05-29T13:57:34.672Z,2.90
2019-05-29T13:58:45.333Z,2.20
2019-05-29T13:59:34.654Z,1.50
2019-05-29T14:00:35.187Z,2.70
2019-05-29T14:01:34.629Z,2.10
2019-05-29T14:02:34.648Z,1.60
2019-05-29T14:03:34.602Z,5.20
2019-05-29T14:04:34.584Z,1.60
2019-05-29T14:05:34.572Z,4.40
2019-05-29T14:06:34.562Z,1.30
2019-05-29T14:07:34.549Z,2.30
2019-05-29T14:08:34.557Z,1.80
2019-05-29T14:09:34.531Z,2.40